createdAt,value
2019-03-05T00:01:24.098Z,23.1
2019-03-05T00:06:29.441Z,23.1
2019-03-05T00:11:34.890Z,23.1
2019-03-05T00:16:40.393Z,23.1
2019-03-05T00:21:46.545Z,23.1
2019-03-05T00:26:51.730Z,23.1
2019-03-05T00:31:57.482Z,23.1
2019-03-05T00:37:03.225Z,23.1
2019-03-05T00:42:08.694Z,23.1
2019-03-05T00:47:14.100Z,23.1
2019-03-05T00:52:20.134Z,23.1
2019-03-05T00:57:25.285Z,23.1
2019-03-05T01:02:30.962Z,23.1
2019-03-05T01:07:35.401Z,23.1
2019-03-05T01:12:40.966Z,23.1
2019-03-05T01:17:46.477Z,23.1
2019-03-05T01:27:56.210Z,23
2019-03-05T01:33:01.594Z,23.1
2019-03-05T01:38:07.575Z,23
2019-03-05T01:43:12.932Z,23
2019-03-05T01:48:18.592Z,23
2019-03-05T01:53:24.409Z,23
2019-03-05T01:58:29.800Z,23
2019-03-05T02:03:35.106Z,23
2019-03-05T02:08:40.198Z,23
2019-03-05T02:13:46.637Z,23
2019-03-05T02:18:51.833Z,23
2019-03-05T02:23:57.397Z,23
2019-03-05T02:29:03.028Z,23
2019-03-05T02:34:08.237Z,22.9
2019-03-05T02:39:13.824Z,22.9
2019-03-05T02:44:19.104Z,22.9
2019-03-05T02:49:24.685Z,22.9
2019-03-05T02:54:30.349Z,22.9
2019-03-05T02:59:36.122Z,22.9
2019-03-05T03:04:41.624Z,22.9
2019-03-05T03:09:47.124Z,22.9
2019-03-05T03:14:52.867Z,22.9
2019-03-05T03:19:58.327Z,22.9
2019-03-05T03:25:04.153Z,22.9
2019-03-05T03:30:09.830Z,22.9
2019-03-05T03:35:15.186Z,22.9
2019-03-05T03:40:19.983Z,22.9
2019-03-05T03:45:25.833Z,22.9
2019-03-05T03:50:30.942Z,22.9
2019-03-05T03:55:37.262Z,22.9
2019-03-05T04:00:42.937Z,22.9
2019-03-05T04:05:48.274Z,22.9
2019-03-05T04:10:53.650Z,22.8
2019-03-05T04:15:58.225Z,22.8
2019-03-05T04:21:03.742Z,22.9
2019-03-05T04:26:09.006Z,22.8
2019-03-05T04:31:14.000Z,22.8
2019-03-05T04:36:19.651Z,22.8
2019-03-05T04:41:23.966Z,22.8
2019-03-05T04:46:29.040Z,22.9
2019-03-05T04:51:34.100Z,22.8
2019-03-05T05:06:49.096Z,23
2019-03-05T05:11:54.740Z,23
2019-03-05T05:17:00.105Z,23.1
2019-03-05T05:22:05.716Z,23.1
2019-03-05T05:27:11.522Z,23.1
2019-03-05T05:32:16.446Z,23.2
2019-03-05T05:37:21.554Z,23.2
2019-03-05T05:42:27.337Z,23.3
2019-03-05T05:47:33.188Z,23.3
2019-03-05T05:52:38.199Z,23.3
2019-03-05T05:57:43.617Z,23.3
2019-03-05T06:02:49.419Z,23.3
2019-03-05T06:07:55.432Z,23.3
2019-03-05T06:13:01.398Z,23.3
2019-03-05T06:18:07.217Z,23.3
2019-03-05T06:23:12.364Z,23.3
2019-03-05T06:28:17.534Z,23.3
2019-03-05T06:33:22.781Z,23.4
2019-03-05T06:38:28.819Z,23.4
2019-03-05T06:43:34.545Z,23.4
2019-03-05T06:48:40.463Z,23.4
2019-03-05T06:53:46.300Z,23.3
2019-03-05T06:58:51.408Z,23.3
2019-03-05T07:03:56.860Z,23.3
2019-03-05T07:09:02.975Z,23.2
2019-03-05T07:14:08.468Z,23.2
2019-03-05T07:19:13.700Z,23.2
2019-03-05T07:24:18.668Z,23.2
2019-03-05T07:29:24.288Z,23.2
2019-03-05T07:34:28.032Z,23.2
2019-03-05T07:39:33.435Z,23.2
2019-03-05T07:44:38.532Z,23.3
2019-03-05T07:54:48.951Z,23.3
2019-03-05T07:59:57.820Z,23.3
2019-03-05T08:05:03.508Z,23.4
2019-03-05T08:10:09.177Z,23.4
2019-03-05T08:15:14.936Z,23.4
2019-03-05T08:25:23.813Z,23.5
2019-03-05T08:30:29.858Z,23.5
2019-03-05T08:35:35.660Z,23.4
2019-03-05T08:40:39.965Z,23.4
2019-03-05T08:45:45.708Z,23.3
2019-03-05T08:50:51.386Z,23.4
2019-03-05T08:55:56.661Z,23.4
2019-03-05T09:01:02.332Z,23.4
2019-03-05T09:11:13.084Z,23.5
2019-03-05T09:16:19.033Z,23.5
2019-03-05T09:21:24.849Z,23.5
2019-03-05T09:26:30.322Z,23.6
2019-03-05T09:31:35.889Z,23.6
2019-03-05T09:36:52.972Z,23.6
2019-03-05T09:41:48.965Z,23.6
2019-03-05T09:46:54.115Z,23.6
2019-03-05T09:52:00.061Z,23.6
2019-03-05T09:57:12.854Z,23.6
2019-03-05T10:02:08.050Z,23.6
2019-03-05T10:07:20.949Z,23.6
2019-03-05T10:12:15.893Z,23.6
2019-03-05T10:17:21.496Z,23.5
2019-03-05T10:22:27.487Z,23.4
2019-03-05T10:27:33.453Z,23.3
2019-03-05T10:32:37.888Z,23.3
2019-03-05T10:37:43.582Z,23.3
2019-03-05T10:42:49.573Z,23.2
2019-03-05T10:47:54.591Z,23.3
2019-03-05T10:52:59.765Z,23.2
2019-03-05T10:58:05.395Z,23.2
2019-03-05T11:08:15.423Z,23.2
2019-03-05T11:13:21.025Z,23.1
2019-03-05T11:18:31.585Z,23.1
2019-03-05T11:23:26.550Z,23.1
2019-03-05T11:33:35.805Z,23.2
2019-03-05T11:38:41.784Z,23.1
2019-03-05T11:43:47.488Z,23.2
2019-03-05T11:48:51.624Z,23.2
2019-03-05T11:53:56.875Z,23.2
2019-03-05T11:59:01.866Z,23.2
2019-03-05T12:04:07.118Z,23.2
2019-03-05T12:09:11.965Z,23.2
2019-03-05T12:19:21.760Z,23.2
2019-03-05T12:24:27.424Z,23.2
2019-03-05T12:29:33.341Z,23.2
2019-03-05T12:34:38.376Z,23.2
2019-03-05T12:39:44.036Z,23.2
2019-03-05T12:44:48.099Z,23.2
2019-03-05T12:49:53.676Z,23.2
2019-03-05T12:54:59.462Z,23.2
2019-03-05T13:00:05.125Z,23.2
2019-03-05T13:05:11.024Z,23.2
2019-03-05T13:10:16.143Z,23.2
2019-03-05T13:15:21.520Z,23.2
2019-03-05T13:20:28.824Z,23.2
2019-03-05T13:25:35.003Z,23.2
2019-03-05T13:30:42.494Z,23.2
2019-03-05T13:35:47.541Z,23.2
2019-03-05T13:40:52.645Z,23.2
2019-03-05T13:45:59.381Z,23.2
2019-03-05T13:51:05.363Z,23.2
2019-03-05T13:56:13.838Z,23.2
2019-03-05T14:11:28.225Z,23.2
2019-03-05T14:16:33.660Z,23.2
2019-03-05T14:21:38.769Z,23.2
2019-03-05T14:26:44.951Z,23.2
2019-03-05T14:31:50.570Z,23.2
2019-03-05T14:36:56.227Z,23.2
2019-03-05T14:42:02.313Z,23.3
2019-03-05T14:47:08.801Z,23.2
2019-03-05T14:52:13.967Z,23
2019-03-05T14:57:22.519Z,22.9
2019-03-05T15:02:28.039Z,22.8
2019-03-05T15:07:33.939Z,22.9
2019-03-05T15:12:39.293Z,22.8
2019-03-05T15:17:44.939Z,22.9
2019-03-05T15:22:50.722Z,23
2019-03-05T15:27:56.458Z,22.9
2019-03-05T15:33:01.814Z,23
2019-03-05T15:38:07.222Z,23
2019-03-05T15:43:12.673Z,23
2019-03-05T15:48:13.389Z,23.1
2019-03-05T15:53:19.466Z,23
2019-03-05T15:58:25.559Z,23
2019-03-05T16:03:31.378Z,23.1
2019-03-05T16:08:36.717Z,23
2019-03-05T16:13:42.444Z,23.1
2019-03-05T16:18:48.365Z,23.1
2019-03-05T16:23:53.733Z,23.1
2019-03-05T16:28:59.852Z,23
2019-03-05T16:34:09.330Z,23
2019-03-05T16:39:07.692Z,23
2019-03-05T16:44:15.472Z,23
2019-03-05T16:49:20.256Z,23
2019-03-05T16:54:26.244Z,23
2019-03-05T16:59:32.028Z,23
2019-03-05T17:04:37.856Z,23.1
2019-03-05T17:14:47.236Z,23.1
2019-03-05T17:19:52.682Z,23.1
2019-03-05T17:24:58.386Z,23.1
2019-03-05T17:30:07.728Z,23.1
2019-03-05T17:35:12.703Z,22.9
2019-03-05T17:40:18.752Z,22.9
2019-03-05T17:45:24.274Z,23.1
2019-03-05T17:50:30.373Z,23.1
2019-03-05T17:55:36.148Z,23.1
2019-03-05T18:00:42.192Z,23.2
2019-03-05T18:05:47.873Z,23.2
2019-03-05T18:10:53.124Z,23.2
2019-03-05T18:15:58.684Z,23.3
2019-03-05T18:21:05.437Z,23.3
2019-03-05T18:26:10.727Z,23.3
2019-03-05T18:31:17.016Z,23.3
2019-03-05T18:36:22.949Z,23.3
2019-03-05T18:41:29.012Z,23.4
2019-03-05T18:46:34.542Z,23.4
2019-03-05T18:56:45.074Z,23.4
2019-03-05T19:01:50.391Z,23.5
2019-03-05T19:06:58.141Z,21.7
2019-03-05T19:12:03.973Z,21.6
2019-03-05T19:17:09.666Z,22.1
2019-03-05T19:22:14.959Z,22.4
2019-03-05T19:27:27.914Z,22.9
2019-03-05T19:32:24.126Z,23.1
2019-03-05T19:37:30.376Z,23.1
2019-03-05T19:42:36.344Z,23.2
2019-03-05T19:47:41.830Z,23.2
2019-03-05T19:52:47.793Z,23.4
2019-03-05T20:02:52.500Z,23.4
2019-03-05T20:07:58.395Z,23.4
2019-03-05T20:13:04.825Z,23.4
2019-03-05T20:18:10.952Z,23.4
2019-03-05T20:23:16.185Z,23.4
2019-03-05T20:28:21.558Z,23.4
2019-03-05T20:33:26.884Z,23.4
2019-03-05T20:38:34.983Z,23.4
2019-03-05T20:43:40.684Z,23.4
2019-03-05T20:48:46.241Z,23.4
2019-03-05T20:53:51.825Z,23.4
2019-03-05T20:58:58.076Z,23.5
2019-03-05T21:04:03.475Z,23.4
2019-03-05T21:09:08.732Z,23.4
2019-03-05T21:14:14.708Z,23.4
2019-03-05T21:19:20.452Z,23.4
2019-03-05T21:24:26.187Z,23.4
2019-03-05T21:29:31.693Z,23.3
2019-03-05T21:34:37.688Z,23.3
2019-03-05T21:39:43.043Z,23.4
2019-03-05T21:44:48.850Z,23.3
2019-03-05T21:49:54.705Z,23.4
2019-03-05T21:55:00.974Z,23.3
2019-03-05T22:00:06.757Z,23.4
2019-03-05T22:05:11.939Z,23.4
2019-03-05T22:10:17.063Z,23.3
2019-03-05T22:15:22.536Z,23.4
2019-03-05T22:20:26.867Z,23.4
2019-03-05T22:30:36.976Z,23.3
2019-03-05T22:35:42.914Z,23.3
2019-03-05T22:40:49.652Z,23.3
2019-03-05T22:45:56.058Z,23.2
2019-03-05T22:51:01.626Z,23.3
2019-03-05T22:56:07.522Z,23.3
2019-03-05T23:01:12.830Z,23.3
2019-03-05T23:06:18.909Z,23.3
2019-03-05T23:11:24.521Z,23.3
2019-03-05T23:16:30.799Z,23.3
2019-03-05T23:21:37.923Z,23.2
2019-03-05T23:26:43.972Z,23.2
2019-03-05T23:31:49.063Z,23.2
2019-03-05T23:36:54.271Z,23.2
2019-03-05T23:47:05.076Z,23.2
2019-03-05T23:52:10.908Z,23.2
2019-03-05T23:57:16.115Z,23.2
